Danxian, China
Current Conditions -  °F | °C
As of 2:00 AM on Wednesday 22 Oct 2014 (Local Time) from ZJHK Reporting Station
Few Clouds Few Clouds  
Wind Chill: 73°   Ceiling: Unl
Heat Index: 73°   Visibility: 4mi
Dew Point: 73°   Wind: 0mph
Humidity: 100%   Direction: NA
Pressure: 29.94"   Gusts: NA
Location:  19.52°N, 109.58°E
Report Text: ZJHK 211800Z 00000MPS 6000 FEW015 23/23 Q1014 NOSIG
Loading
Personal Weather Stations






























Interactive Weather Map
Tropical Storm Tracking
New forecast layout! Learn more

10-Day Weather Forecast

Advertisements
Track Severe Weather on mobile